Cedar Valley, Utah
Current Conditions -  °F | °C
As of 1:59 PM on Saturday 22 Nov 2014 (Local Time) from KPVU Reporting Station
Rain Showers Rain Showers  
Wind Chill: 45°   Ceiling: 4000
Heat Index: 45°   Visibility: 10mi
Dew Point: 36°   Wind: 3mph
Humidity: 71%   Direction: 90°E
Pressure: 29.83"   Gusts: NA
Location:  40.29°N, 112.07°W
Report Text: KPVU 222059Z 09003KT 10SM VCSH BKN040 07/02 A2983
Loading
Personal Weather Stations






























Interactive Weather Map New forecast layout! Learn more

10-Day Weather Forecast

Advertisements
Track Severe Weather on mobile